Sacramento, California
Current Conditions -  °F | °C
As of 2:53 AM on Friday 24 Oct 2014 (Local Time) from KSAC Reporting Station
Clear Clear  
Wind Chill: 56°   Ceiling: Unl
Heat Index: 56°   Visibility: 10mi
Dew Point: 53°   Wind: 5mph
Humidity: 90%   Direction: 340°NNW
Pressure: 29.98"   Gusts: NA
Location:  38.58°N, 121.49°W
Report Text: KSAC 240953Z AUTO 34004KT 10SM CLR 13/12 A2998 RMK AO2 SLP152 T01330117
Loading
Personal Weather Stations






























Interactive Weather Map
Tropical Storm Tracking
New forecast layout! Learn more

10-Day Weather Forecast

Advertisements
Track Severe Weather on mobile